Time;durP1;ratioP1;P1;durP2;ratioP2;P2;SDS_P1;SDS_P2;PMS_P1;PMS_P2;Temp;Humidity;BMP_temperature;BMP_pressure;BME280_temperature;BME280_humidity;BME280_pressure;Samples;Min_cycle;Max_cycle;Signal;HPM_P1;HPM_P2
2022/09/14 00:01:32;;;;;;;5.80;5.50;;;;;;;;;;5003677;28;20120;-71
2022/09/14 00:04:02;;;;;;;5.50;5.30;;;;;;;;;;5007279;28;20042;-71
2022/09/14 00:06:28;;;;;;;5.80;5.50;;;;;;;;;;5006860;28;20041;-71
2022/09/14 00:08:57;;;;;;;5.60;5.40;;;;;;;;;;5008213;28;20038;-71
2022/09/14 00:11:25;;;;;;;5.50;5.30;;;;;;;;;;5005844;28;20733;-71
2022/09/14 00:13:52;;;;;;;5.77;5.47;;;;;;;;;;5010315;28;20509;-71
2022/09/14 00:16:20;;;;;;;5.80;5.50;;;;;;;;;;5011424;28;20029;-71
2022/09/14 00:18:51;;;;;;;5.40;5.20;;;;;;;;;;5009174;28;20056;-71
2022/09/14 00:21:16;;;;;;;5.43;5.22;;;;;;;;;;5011254;28;20038;-71
2022/09/14 00:23:42;;;;;;;5.28;5.07;;;;;;;;;;5008191;28;20045;-71
2022/09/14 00:26:12;;;;;;;5.43;5.22;;;;;;;;;;5007013;28;20073;-71
2022/09/14 00:28:46;;;;;;;5.95;5.65;;;;;;;;;;5008779;28;20117;-71
2022/09/14 00:31:13;;;;;;;6.00;5.70;;;;;;;;;;5008917;28;20113;-71
2022/09/14 00:33:41;;;;;;;6.32;6.03;;;;;;;;;;5007214;28;20116;-71
2022/09/14 00:36:09;;;;;;;6.63;6.22;;;;;;;;;;5009787;28;20048;-71
2022/09/14 00:38:35;;;;;;;6.50;6.20;;;;;;;;;;5010617;28;20038;-71
2022/09/14 00:41:02;;;;;;;6.30;6.00;;;;;;;;;;5007808;28;20026;-72
2022/09/14 00:43:27;;;;;;;6.47;6.18;;;;;;;;;;5006910;28;20040;-71
2022/09/14 00:45:53;;;;;;;6.50;6.10;;;;;;;;;;5008351;28;20038;-71
2022/09/14 00:48:23;;;;;;;6.55;6.25;;;;;;;;;;5007127;28;21712;-71
2022/09/14 00:50:49;;;;;;;6.90;6.22;;;;;;;;;;5008141;28;20038;-71
2022/09/14 00:53:15;;;;;;;7.00;6.50;;;;;;;;;;5005384;28;20038;-71
2022/09/14 00:55:40;;;;;;;6.53;6.20;;;;;;;;;;5009365;28;20037;-71
2022/09/14 00:58:06;;;;;;;6.93;6.30;;;;;;;;;;5010512;28;20045;-71
2022/09/14 01:00:32;;;;;;;6.70;6.30;;;;;;;;;;5006728;28;20037;-71
2022/09/14 01:02:58;;;;;;;6.80;6.40;;;;;;;;;;5011226;28;20021;-71
2022/09/14 01:05:37;;;;;;;6.78;6.38;;;;;;;;;;5016602;28;20029;-71
2022/09/14 01:08:14;;;;;;;;;;;;;;;;;;5006648;28;20088;-71
2022/09/14 01:10:50;;;;;;;8.88;7.00;;;;;;;;;;5008570;28;19956;-71
2022/09/14 01:13:40;;;;;;;6.30;6.00;;;;;;;;;;5008255;28;20038;-71
2022/09/14 01:16:25;;;;;;;6.70;6.30;;;;;;;;;;5008958;28;20038;-70
2022/09/14 01:18:56;;;;;;;6.93;6.53;;;;;;;;;;5008195;28;20482;-72
2022/09/14 01:21:26;;;;;;;6.53;5.55;;;;;;;;;;5008499;28;20141;-71
2022/09/14 01:24:15;;;;;;;6.10;5.80;;;;;;;;;;5007117;28;20045;-72
2022/09/14 01:26:52;;;;;;;6.72;6.32;;;;;;;;;;5004785;28;20077;-72
2022/09/14 01:29:37;;;;;;;6.68;6.30;;;;;;;;;;5008625;28;20648;-72
2022/09/14 01:32:12;;;;;;;6.95;6.63;;;;;;;;;;5007255;28;20052;-72
2022/09/14 01:34:45;;;;;;;9.48;8.88;;;;;;;;;;5005141;28;20076;-72
2022/09/14 01:37:17;;;;;;;9.23;8.70;;;;;;;;;;5010134;28;20034;-72
2022/09/14 01:39:49;;;;;;;9.38;8.77;;;;;;;;;;5010338;28;20058;-72
2022/09/14 01:42:18;;;;;;;8.85;8.35;;;;;;;;;;5005157;28;20042;-71
2022/09/14 01:44:48;;;;;;;11.57;10.68;;;;;;;;;;5009479;28;20128;-71
2022/09/14 01:47:49;;;;;;;11.30;10.13;;;;;;;;;;5011224;28;20045;-72
2022/09/14 01:50:25;;;;;;;10.95;10.15;;;;;;;;;;5004870;28;20095;-71
2022/09/14 01:52:59;;;;;;;11.38;10.48;;;;;;;;;;5008382;28;20426;-71
2022/09/14 01:55:30;;;;;;;11.90;10.98;;;;;;;;;;5007105;28;20493;-72
2022/09/14 01:58:08;;;;;;;12.93;11.52;;;;;;;;;;5006088;28;20026;-73
2022/09/14 02:00:38;;;;;;;12.43;11.30;;;;;;;;;;5005871;28;20033;-72
2022/09/14 02:03:15;;;;;;;11.77;10.68;;;;;;;;;;5007262;28;20092;-71
2022/09/14 02:06:05;;;;;;;9.38;8.80;;;;;;;;;;5009681;28;20521;-71
2022/09/14 02:08:32;;;;;;;8.43;8.02;;;;;;;;;;4998123;28;20030;-72
2022/09/14 02:10:58;;;;;;;8.60;8.20;;;;;;;;;;5007112;28;20046;-72
2022/09/14 02:13:25;;;;;;;8.48;8.07;;;;;;;;;;5009980;28;20552;-73
2022/09/14 02:15:50;;;;;;;8.48;8.07;;;;;;;;;;5009768;28;20088;-72
2022/09/14 02:18:16;;;;;;;9.35;8.77;;;;;;;;;;5007650;28;20583;-72
2022/09/14 02:21:20;;;;;;;8.98;8.48;;;;;;;;;;5027679;28;20064;-72
2022/09/14 02:23:47;;;;;;;9.18;8.68;;;;;;;;;;4941551;28;20121;-72
2022/09/14 02:26:14;;;;;;;8.75;8.35;;;;;;;;;;4949530;28;20122;-72
2022/09/14 02:28:40;;;;;;;8.60;8.20;;;;;;;;;;4949389;28;20053;-72
2022/09/14 02:31:32;;;;;;;8.55;8.15;;;;;;;;;;4948361;28;20031;-72
2022/09/14 02:34:09;;;;;;;8.60;8.20;;;;;;;;;;4950365;28;20057;-72
2022/09/14 02:36:50;;;;;;;8.88;8.48;;;;;;;;;;4950927;28;20035;-72
2022/09/14 02:39:24;;;;;;;9.20;8.70;;;;;;;;;;4949546;28;20043;-71
2022/09/14 02:42:02;;;;;;;8.88;8.48;;;;;;;;;;4950232;28;20542;-72
2022/09/14 02:44:41;;;;;;;9.25;8.75;;;;;;;;;;4952004;28;20074;-72
2022/09/14 02:47:20;;;;;;;9.50;9.00;;;;;;;;;;4946110;28;20054;-72
2022/09/14 02:50:14;;;;;;;9.60;9.10;;;;;;;;;;4949493;28;20486;-72
2022/09/14 02:52:54;;;;;;;9.30;8.80;;;;;;;;;;4948227;28;20515;-72
2022/09/14 02:55:24;;;;;;;9.27;8.77;;;;;;;;;;4946527;28;20058;-72
2022/09/14 02:58:07;;;;;;;9.68;9.18;;;;;;;;;;4940619;28;20054;-72
2022/09/14 03:00:37;;;;;;;9.60;9.10;;;;;;;;;;5009933;28;20060;-71
2022/09/14 03:03:04;;;;;;;10.00;9.45;;;;;;;;;;5010032;28;20049;-71
2022/09/14 03:05:30;;;;;;;9.43;8.93;;;;;;;;;;5010126;28;20041;-71
2022/09/14 03:07:56;;;;;;;8.68;8.27;;;;;;;;;;5014628;28;20069;-71
2022/09/14 03:10:21;;;;;;;9.00;8.60;;;;;;;;;;5016970;28;20063;-71
2022/09/14 03:12:47;;;;;;;9.13;8.63;;;;;;;;;;5014488;28;20034;-71
2022/09/14 03:15:12;;;;;;;9.82;9.32;;;;;;;;;;5013430;28;20036;-72
2022/09/14 03:17:38;;;;;;;9.57;9.07;;;;;;;;;;5011270;28;20037;-72
2022/09/14 03:20:04;;;;;;;9.27;8.77;;;;;;;;;;5012441;28;20038;-72
2022/09/14 03:22:31;;;;;;;8.75;8.35;;;;;;;;;;5012721;28;20041;-71
2022/09/14 03:24:57;;;;;;;9.50;9.00;;;;;;;;;;5008208;28;20045;-72
2022/09/14 03:27:22;;;;;;;9.43;8.93;;;;;;;;;;5010120;28;20042;-71
2022/09/14 03:29:48;;;;;;;10.43;9.75;;;;;;;;;;5014276;28;20040;-70
2022/09/14 03:32:13;;;;;;;9.77;9.18;;;;;;;;;;5010529;28;20034;-71
2022/09/14 03:34:39;;;;;;;9.20;8.70;;;;;;;;;;5009774;28;20037;-71
2022/09/14 03:37:07;;;;;;;9.23;8.73;;;;;;;;;;5024779;23;20040;31
2022/09/14 03:39:32;;;;;;;9.45;8.95;;;;;;;;;;4965563;28;20039;-69
2022/09/14 03:41:58;;;;;;;9.38;8.88;;;;;;;;;;4968638;28;20030;-69
2022/09/14 03:44:23;;;;;;;9.40;8.90;;;;;;;;;;4967492;28;20030;-69
2022/09/14 03:46:49;;;;;;;9.25;8.75;;;;;;;;;;4968875;28;20081;-69
2022/09/14 03:49:15;;;;;;;9.25;8.75;;;;;;;;;;4980692;28;20057;-69
2022/09/14 03:51:40;;;;;;;9.60;9.10;;;;;;;;;;4986962;28;20038;-69
2022/09/14 03:54:06;;;;;;;9.55;9.05;;;;;;;;;;4986311;28;20039;-69
2022/09/14 03:56:31;;;;;;;9.65;9.15;;;;;;;;;;4979648;28;20035;-69
2022/09/14 03:58:57;;;;;;;9.30;8.80;;;;;;;;;;4984699;28;20030;-69
2022/09/14 04:01:23;;;;;;;9.27;8.77;;;;;;;;;;4983522;28;20045;-69
2022/09/14 04:03:49;;;;;;;9.77;9.27;;;;;;;;;;4982763;28;20064;-69
2022/09/14 04:06:16;;;;;;;14.98;10.52;;;;;;;;;;4983091;28;20030;-69
2022/09/14 04:08:43;;;;;;;9.25;8.75;;;;;;;;;;4979474;28;20035;-69
2022/09/14 04:11:18;;;;;;;9.23;8.73;;;;;;;;;;4983128;28;20045;-70
2022/09/14 04:13:44;;;;;;;9.43;8.93;;;;;;;;;;4983833;28;20064;-70
2022/09/14 04:16:10;;;;;;;9.50;9.00;;;;;;;;;;4984324;28;20042;-69
2022/09/14 04:18:36;;;;;;;10.45;9.95;;;;;;;;;;4982641;28;20118;-69
2022/09/14 04:21:05;;;;;;;10.20;9.70;;;;;;;;;;4983804;28;20121;-69
2022/09/14 04:23:31;;;;;;;9.90;9.40;;;;;;;;;;4985852;28;20072;-69
2022/09/14 04:25:57;;;;;;;9.23;8.73;;;;;;;;;;4985032;28;20445;-69
2022/09/14 04:28:23;;;;;;;8.98;8.52;;;;;;;;;;4983215;28;20034;-69
2022/09/14 04:30:59;;;;;;;9.30;8.80;;;;;;;;;;4979681;28;20470;-69
2022/09/14 04:33:29;;;;;;;9.43;8.93;;;;;;;;;;4986132;28;20430;-69
2022/09/14 04:36:04;;;;;;;9.70;9.20;;;;;;;;;;4982429;28;20041;-69
2022/09/14 04:38:30;;;;;;;9.77;9.27;;;;;;;;;;4980922;28;20541;-69
2022/09/14 04:40:56;;;;;;;9.73;9.23;;;;;;;;;;4982242;28;20148;-70
2022/09/14 04:43:23;;;;;;;9.35;8.85;;;;;;;;;;4985378;28;20122;-70
2022/09/14 04:45:49;;;;;;;9.60;9.10;;;;;;;;;;4983678;28;20386;-71
2022/09/14 04:48:15;;;;;;;9.48;8.98;;;;;;;;;;4985257;28;20064;-71
2022/09/14 04:50:40;;;;;;;9.82;9.32;;;;;;;;;;4984243;28;20030;-70
2022/09/14 04:53:09;;;;;;;10.20;9.70;;;;;;;;;;4984032;28;20432;-70
2022/09/14 04:55:34;;;;;;;9.88;9.38;;;;;;;;;;4983651;28;20030;-70
2022/09/14 04:58:00;;;;;;;9.93;9.43;;;;;;;;;;4984105;28;20042;-71
2022/09/14 05:00:26;;;;;;;10.18;9.68;;;;;;;;;;4984021;28;20041;-71
2022/09/14 05:02:51;;;;;;;9.60;9.10;;;;;;;;;;4983518;28;20382;-71
2022/09/14 05:05:17;;;;;;;9.60;9.10;;;;;;;;;;4978369;28;20392;-71
2022/09/14 05:07:43;;;;;;;9.73;9.23;;;;;;;;;;4982478;28;20034;-71
2022/09/14 05:10:08;;;;;;;10.77;10.18;;;;;;;;;;4986179;28;20034;-71
2022/09/14 05:12:34;;;;;;;10.35;9.85;;;;;;;;;;4983772;28;20620;-71
2022/09/14 05:14:59;;;;;;;10.75;10.15;;;;;;;;;;4984700;28;20034;-71
2022/09/14 05:17:25;;;;;;;10.27;9.77;;;;;;;;;;4981283;28;20019;-71
2022/09/14 05:19:51;;;;;;;10.00;9.50;;;;;;;;;;4981768;28;20035;-71
2022/09/14 05:22:16;;;;;;;10.00;9.50;;;;;;;;;;4980685;28;20050;-71
2022/09/14 05:24:42;;;;;;;10.43;9.93;;;;;;;;;;4981527;28;20034;-71
2022/09/14 05:27:07;;;;;;;10.55;10.00;;;;;;;;;;4981814;28;20042;-71
2022/09/14 05:29:33;;;;;;;9.77;9.27;;;;;;;;;;4985086;28;20027;-71
2022/09/14 05:31:59;;;;;;;10.20;9.70;;;;;;;;;;4983950;28;20039;-71
2022/09/14 05:34:24;;;;;;;10.38;9.88;;;;;;;;;;4982905;28;20034;-71
2022/09/14 05:36:50;;;;;;;10.20;9.70;;;;;;;;;;4983151;28;20122;-71
2022/09/14 05:39:15;;;;;;;9.98;9.48;;;;;;;;;;4985273;28;20100;-71
2022/09/14 05:41:41;;;;;;;10.18;9.68;;;;;;;;;;4981319;28;20030;-71
2022/09/14 05:44:06;;;;;;;10.20;9.70;;;;;;;;;;4982543;28;20026;-71
2022/09/14 05:46:32;;;;;;;10.30;9.80;;;;;;;;;;4984749;28;20030;-71
2022/09/14 05:48:58;;;;;;;9.95;9.45;;;;;;;;;;4981078;28;20030;-71
2022/09/14 05:51:25;;;;;;;10.10;9.60;;;;;;;;;;4982124;28;20533;-71
2022/09/14 05:53:56;;;;;;;9.75;9.25;;;;;;;;;;4977984;28;20034;-71
2022/09/14 05:56:25;;;;;;;10.05;9.55;;;;;;;;;;4988668;28;20034;-71
2022/09/14 05:58:50;;;;;;;9.37;8.87;;;;;;;;;;4984266;28;20038;-71
2022/09/14 06:01:21;;;;;;;9.80;9.30;;;;;;;;;;4987917;28;20297;-71
2022/09/14 06:03:48;;;;;;;9.82;9.32;;;;;;;;;;4984436;28;20031;-70
2022/09/14 06:06:17;;;;;;;10.13;9.63;;;;;;;;;;4984941;28;20121;-71
2022/09/14 06:08:43;;;;;;;;;;;;;;;;;;4985236;28;20038;-71
2022/09/14 06:11:16;;;;;;;10.48;9.98;;;;;;;;;;4987587;28;19921;-72
2022/09/14 06:13:42;;;;;;;9.95;9.45;;;;;;;;;;4989639;28;20062;-72
2022/09/14 06:16:11;;;;;;;10.23;9.73;;;;;;;;;;4989344;28;20038;-71
2022/09/14 06:18:37;;;;;;;;;;;;;;;;;;4986901;28;20026;-71
2022/09/14 06:21:04;;;;;;;10.60;10.10;;;;;;;;;;4984336;28;19921;-71
2022/09/14 06:23:31;;;;;;;9.95;9.45;;;;;;;;;;4990484;28;20038;-71
2022/09/14 06:25:59;;;;;;;10.52;10.02;;;;;;;;;;4985134;28;20034;-71
2022/09/14 06:28:26;;;;;;;10.38;9.88;;;;;;;;;;4985119;28;20022;-71
2022/09/14 06:30:51;;;;;;;10.82;10.25;;;;;;;;;;4982216;28;20134;-71
2022/09/14 06:33:18;;;;;;;10.70;10.20;;;;;;;;;;4985055;28;20115;-70
2022/09/14 06:35:54;;;;;;;10.38;9.88;;;;;;;;;;4986658;28;20121;-70
2022/09/14 06:38:20;;;;;;;10.60;10.10;;;;;;;;;;4985446;28;20045;-72
2022/09/14 06:40:56;;;;;;;10.15;9.65;;;;;;;;;;4989466;28;20097;-71
2022/09/14 06:43:23;;;;;;;10.30;9.80;;;;;;;;;;4991041;28;20547;-72
2022/09/14 06:46:06;;;;;;;10.40;9.90;;;;;;;;;;4986440;28;20396;-71
2022/09/14 06:48:37;;;;;;;10.27;9.77;;;;;;;;;;4988186;28;20034;-72
2022/09/14 06:51:12;;;;;;;10.35;9.85;;;;;;;;;;4987457;28;20065;-71
2022/09/14 06:53:38;;;;;;;10.35;9.85;;;;;;;;;;4986529;28;20030;-72
2022/09/14 06:56:04;;;;;;;9.85;9.35;;;;;;;;;;4981488;28;20041;-72
2022/09/14 06:58:29;;;;;;;10.15;9.65;;;;;;;;;;4984121;28;20129;-72
2022/09/14 07:01:00;;;;;;;10.00;9.50;;;;;;;;;;4986499;28;20030;-71
2022/09/14 07:03:26;;;;;;;10.10;9.60;;;;;;;;;;4989505;28;20061;-72
2022/09/14 07:05:51;;;;;;;10.50;9.90;;;;;;;;;;4986712;28;20034;-72
2022/09/14 07:08:17;;;;;;;10.20;9.70;;;;;;;;;;4985062;28;20038;-72
2022/09/14 07:10:43;;;;;;;10.23;9.73;;;;;;;;;;4988460;28;20116;-72
2022/09/14 07:13:08;;;;;;;9.52;9.02;;;;;;;;;;4983733;28;20054;-71
2022/09/14 07:15:34;;;;;;;9.55;9.05;;;;;;;;;;4992481;28;20030;-72
2022/09/14 07:17:59;;;;;;;9.60;9.10;;;;;;;;;;4988251;28;20034;-71
2022/09/14 07:20:25;;;;;;;10.07;9.57;;;;;;;;;;4985011;28;20121;-71
2022/09/14 07:22:50;;;;;;;9.90;9.40;;;;;;;;;;4982105;28;20038;-73
2022/09/14 07:25:16;;;;;;;9.63;9.13;;;;;;;;;;4986311;28;20045;-72
2022/09/14 07:27:42;;;;;;;9.48;8.98;;;;;;;;;;4986713;28;20039;-72
2022/09/14 07:30:08;;;;;;;9.68;9.18;;;;;;;;;;4984711;28;20038;-71
2022/09/14 07:32:33;;;;;;;9.85;9.35;;;;;;;;;;4985802;28;20038;-71
2022/09/14 07:34:59;;;;;;;9.30;8.80;;;;;;;;;;4991310;28;20041;-72
2022/09/14 07:37:25;;;;;;;9.68;9.18;;;;;;;;;;4988358;28;20037;-73
2022/09/14 07:39:50;;;;;;;9.00;8.50;;;;;;;;;;4981595;28;20115;-71
2022/09/14 07:42:16;;;;;;;9.70;9.20;;;;;;;;;;4988539;28;20524;-72
2022/09/14 07:44:41;;;;;;;10.00;9.50;;;;;;;;;;4984067;28;20062;-71
2022/09/14 07:47:07;;;;;;;9.32;8.82;;;;;;;;;;4985025;28;20129;-72
2022/09/14 07:49:32;;;;;;;9.05;8.55;;;;;;;;;;4982365;28;20117;-72
2022/09/14 07:51:58;;;;;;;8.88;8.48;;;;;;;;;;4985427;28;20141;-71
2022/09/14 07:54:24;;;;;;;8.90;8.50;;;;;;;;;;4983734;28;20053;-72
2022/09/14 07:56:49;;;;;;;8.98;8.52;;;;;;;;;;4985410;28;20675;-72
2022/09/14 07:59:15;;;;;;;8.43;8.02;;;;;;;;;;4985051;28;20050;-73
2022/09/14 08:01:41;;;;;;;8.55;8.15;;;;;;;;;;4986185;28;20076;-73
2022/09/14 08:04:08;;;;;;;8.73;8.32;;;;;;;;;;4984772;28;20486;-73
2022/09/14 08:06:35;;;;;;;8.90;8.50;;;;;;;;;;4989972;28;20038;-74
2022/09/14 08:09:05;;;;;;;8.57;8.18;;;;;;;;;;4977230;28;20401;-74
2022/09/14 08:11:33;;;;;;;9.05;8.55;;;;;;;;;;4979750;28;20085;-73
2022/09/14 08:14:10;;;;;;;9.35;8.85;;;;;;;;;;4988298;28;20041;-73
2022/09/14 08:16:37;;;;;;;9.00;8.50;;;;;;;;;;4983716;28;20065;-74
2022/09/14 08:19:05;;;;;;;9.00;8.50;;;;;;;;;;4980294;28;20050;-73
2022/09/14 08:21:32;;;;;;;8.68;8.27;;;;;;;;;;4988574;28;20066;-74
2022/09/14 08:24:01;;;;;;;8.82;8.40;;;;;;;;;;4980704;28;20555;-72
2022/09/14 08:26:27;;;;;;;;;;;;;;;;;;4985858;28;20056;-73
2022/09/14 08:28:53;;;;;;;8.55;8.15;;;;;;;;;;4981800;28;20380;-72
2022/09/14 08:31:22;;;;;;;9.13;8.63;;;;;;;;;;4987004;28;20124;-73
2022/09/14 08:34:01;;;;;;;9.05;8.55;;;;;;;;;;4982402;28;20173;-72
2022/09/14 08:36:33;;;;;;;8.68;8.27;;;;;;;;;;4987243;28;20494;-72
2022/09/14 08:38:59;;;;;;;8.70;8.30;;;;;;;;;;4986266;28;20034;-72
2022/09/14 08:41:31;;;;;;;9.07;8.57;;;;;;;;;;4983674;28;20038;-72
2022/09/14 08:44:08;;;;;;;9.13;8.63;;;;;;;;;;4983179;28;20192;-74
2022/09/14 08:46:48;;;;;;;9.35;8.85;;;;;;;;;;4982255;28;20038;-72
2022/09/14 08:49:32;;;;;;;8.55;8.15;;;;;;;;;;4981762;28;20026;-71
2022/09/14 08:51:57;;;;;;;8.80;8.40;;;;;;;;;;4976788;28;20077;-71
2022/09/14 08:54:23;;;;;;;8.95;8.45;;;;;;;;;;4976622;28;20034;-71
2022/09/14 08:57:00;;;;;;;8.80;8.40;;;;;;;;;;4980579;28;20428;-71
2022/09/14 08:59:28;;;;;;;8.57;8.18;;;;;;;;;;4981398;28;20053;-71
2022/09/14 09:02:12;;;;;;;9.93;8.50;;;;;;;;;;4979655;28;20105;-71
2022/09/14 09:04:51;;;;;;;8.50;8.10;;;;;;;;;;4983373;28;20041;-71
2022/09/14 09:07:40;;;;;;;8.73;8.32;;;;;;;;;;4981478;28;20809;-70
2022/09/14 09:10:11;;;;;;;8.52;8.13;;;;;;;;;;4984740;28;20496;-72
2022/09/14 09:12:40;;;;;;;8.57;8.18;;;;;;;;;;4985474;28;20038;-72
2022/09/14 09:15:33;;;;;;;8.40;8.00;;;;;;;;;;4981881;28;20401;-72
2022/09/14 09:18:06;;;;;;;8.68;8.27;;;;;;;;;;4982219;28;20046;-72
2022/09/14 09:20:35;;;;;;;8.50;8.10;;;;;;;;;;4978213;28;20107;-73
2022/09/14 09:23:13;;;;;;;8.30;7.90;;;;;;;;;;4985303;28;20108;-72
2022/09/14 09:26:08;;;;;;;7.88;7.47;;;;;;;;;;4986005;28;20034;-71
2022/09/14 09:28:42;;;;;;;8.10;7.70;;;;;;;;;;4977290;28;20104;-70
2022/09/14 09:31:12;;;;;;;7.85;7.45;;;;;;;;;;4981194;28;20045;-72
2022/09/14 09:33:57;;;;;;;8.20;7.80;;;;;;;;;;4983308;28;20085;-72
2022/09/14 09:36:32;;;;;;;7.82;7.43;;;;;;;;;;5002854;28;20046;-71
2022/09/14 09:38:58;;;;;;;7.82;7.43;;;;;;;;;;5017878;23;20137;-70
2022/09/14 09:41:28;;;;;;;7.53;7.13;;;;;;;;;;5044964;28;20115;-70
2022/09/14 09:44:08;;;;;;;7.45;7.05;;;;;;;;;;5029746;28;20537;-71
2022/09/14 09:46:55;;;;;;;7.07;6.78;;;;;;;;;;5029937;28;20394;-70
2022/09/14 09:49:38;;;;;;;7.60;7.20;;;;;;;;;;5024314;28;20488;-71
2022/09/14 09:52:12;;;;;;;7.30;6.93;;;;;;;;;;5020884;28;20034;-72
2022/09/14 09:54:40;;;;;;;6.85;6.55;;;;;;;;;;5024450;28;20415;-71
2022/09/14 09:57:21;;;;;;;7.00;6.70;;;;;;;;;;5021464;28;20068;-71
2022/09/14 09:59:47;;;;;;;7.15;6.85;;;;;;;;;;5022095;28;20041;-71
2022/09/14 10:02:19;;;;;;;6.82;6.53;;;;;;;;;;5039427;28;20443;-72
2022/09/14 10:05:04;;;;;;;7.15;6.82;;;;;;;;;;5024793;28;20049;-71
2022/09/14 10:07:38;;;;;;;6.78;6.47;;;;;;;;;;5025809;28;20038;-71
2022/09/14 10:10:06;;;;;;;7.40;7.00;;;;;;;;;;5024868;28;20075;-72
2022/09/14 10:12:34;;;;;;;6.88;6.57;;;;;;;;;;5028401;28;20072;-72
2022/09/14 10:15:30;;;;;;;6.50;6.20;;;;;;;;;;5022375;28;20470;-72
2022/09/14 10:18:16;;;;;;;6.20;5.90;;;;;;;;;;5021692;28;20075;-72
2022/09/14 10:20:51;;;;;;;6.10;5.80;;;;;;;;;;5022185;28;20076;-72
2022/09/14 10:23:17;;;;;;;5.30;5.10;;;;;;;;;;5021879;28;20036;-71
2022/09/14 10:25:51;;;;;;;6.80;6.50;;;;;;;;;;5023549;28;20029;-71
2022/09/14 10:28:27;;;;;;;6.60;6.30;;;;;;;;;;5026536;28;20458;-71
2022/09/14 10:31:01;;;;;;;6.50;6.20;;;;;;;;;;5030437;28;20037;-72
2022/09/14 10:33:28;;;;;;;6.68;6.38;;;;;;;;;;5025800;28;21263;-71
2022/09/14 10:36:18;;;;;;;6.97;6.68;;;;;;;;;;5026027;28;20037;-73
2022/09/14 10:38:51;;;;;;;6.30;6.00;;;;;;;;;;5027234;28;20129;-71
2022/09/14 10:41:49;;;;;;;5.93;5.63;;;;;;;;;;5024010;28;20038;-72
2022/09/14 10:44:27;;;;;;;7.10;6.80;;;;;;;;;;5015107;28;20637;-72
2022/09/14 10:47:30;;;;;;;7.05;6.70;;;;;;;;;;5026714;28;20057;-72
2022/09/14 10:50:10;;;;;;;7.10;6.80;;;;;;;;;;5021440;28;20128;-72
2022/09/14 10:53:13;;;;;;;7.03;6.72;;;;;;;;;;5018474;28;20053;-72
2022/09/14 10:56:00;;;;;;;7.50;7.10;;;;;;;;;;5021049;28;20205;-71
2022/09/14 10:58:54;;;;;;;7.57;7.18;;;;;;;;;;5021157;28;20040;-71
2022/09/14 11:01:33;;;;;;;6.97;6.68;;;;;;;;;;5024459;28;20089;-71
2022/09/14 11:04:04;;;;;;;7.63;7.22;;;;;;;;;;5021586;28;20056;-72
2022/09/14 11:07:02;;;;;;;7.18;6.85;;;;;;;;;;5037437;28;20658;-71
2022/09/14 11:09:42;;;;;;;7.15;6.85;;;;;;;;;;5025749;28;20080;-71
2022/09/14 11:12:18;;;;;;;7.30;6.90;;;;;;;;;;5023650;28;20033;-71
2022/09/14 11:14:43;;;;;;;7.63;7.22;;;;;;;;;;5024443;28;20418;-72
2022/09/14 11:17:12;;;;;;;7.25;6.90;;;;;;;;;;5022995;28;20034;-71
2022/09/14 11:19:47;;;;;;;7.03;6.72;;;;;;;;;;5038328;28;20397;-71
2022/09/14 11:22:30;;;;;;;6.68;6.38;;;;;;;;;;5018292;28;20088;-70
2022/09/14 11:25:02;;;;;;;6.70;6.40;;;;;;;;;;5039766;28;20109;-70
2022/09/14 11:27:35;;;;;;;6.72;6.43;;;;;;;;;;5025213;28;20460;-70
2022/09/14 11:30:13;;;;;;;6.80;6.50;;;;;;;;;;5023405;28;20033;-70
2022/09/14 11:33:06;;;;;;;6.20;5.90;;;;;;;;;;5021409;28;20378;-70
2022/09/14 11:35:43;;;;;;;6.28;5.97;;;;;;;;;;5020606;28;20033;-70
2022/09/14 11:38:33;;;;;;;5.87;5.57;;;;;;;;;;5021284;28;20992;-70
2022/09/14 11:41:18;;;;;;;6.13;5.82;;;;;;;;;;5019368;28;20029;-71
2022/09/14 11:44:03;;;;;;;6.28;5.97;;;;;;;;;;5024596;28;20513;-72
2022/09/14 11:46:33;;;;;;;6.65;6.35;;;;;;;;;;5019789;28;20501;-72
2022/09/14 11:49:23;;;;;;;6.07;5.78;;;;;;;;;;5018803;28;20083;-72
2022/09/14 11:51:55;;;;;;;6.40;6.10;;;;;;;;;;5062626;28;20131;-72
2022/09/14 11:54:22;;;;;;;5.90;5.60;;;;;;;;;;5059557;28;20127;-71
2022/09/14 11:56:57;;;;;;;6.18;5.88;;;;;;;;;;5064195;28;20081;-71
2022/09/14 11:59:41;;;;;;;6.05;5.75;;;;;;;;;;5064710;28;20120;-72
2022/09/14 12:02:21;;;;;;;6.53;6.22;;;;;;;;;;5065341;28;20039;-72
2022/09/14 12:05:09;;;;;;;6.70;6.40;;;;;;;;;;5064551;28;20037;-72
2022/09/14 12:07:34;;;;;;;6.50;6.20;;;;;;;;;;5063453;28;20509;-71
2022/09/14 12:10:17;;;;;;;6.82;6.53;;;;;;;;;;5063955;28;20032;-71
2022/09/14 12:12:42;;;;;;;7.13;6.80;;;;;;;;;;5029825;28;20447;-71
2022/09/14 12:15:26;;;;;;;7.05;6.75;;;;;;;;;;5061288;28;20110;-71
2022/09/14 12:18:04;;;;;;;7.45;7.05;;;;;;;;;;5059268;28;20033;-71
2022/09/14 12:20:36;;;;;;;;;;;;;;;;;;5062121;28;20028;-72
2022/09/14 12:23:21;;;;;;;6.43;6.13;;;;;;;;;;5062467;28;19969;-71
2022/09/14 12:26:09;;;;;;;6.40;6.10;;;;;;;;;;5061955;28;20040;-73
2022/09/14 12:28:34;;;;;;;6.43;6.13;;;;;;;;;;5063417;28;20104;-73
2022/09/14 12:31:03;;;;;;;6.50;6.20;;;;;;;;;;5059194;28;20116;-73
2022/09/14 12:33:32;;;;;;;6.75;6.45;;;;;;;;;;5061567;28;20037;-73
2022/09/14 12:36:04;;;;;;;6.95;6.65;;;;;;;;;;5061759;28;20036;-72
2022/09/14 12:38:30;;;;;;;7.50;7.07;;;;;;;;;;5057941;28;20482;-73
2022/09/14 12:41:21;;;;;;;6.40;6.10;;;;;;;;;;5060493;28;20052;-72
2022/09/14 12:43:50;;;;;;;6.45;6.15;;;;;;;;;;5060590;28;20040;-73
2022/09/14 12:46:18;;;;;;;6.30;6.00;;;;;;;;;;5062679;28;20121;-73
2022/09/14 12:48:47;;;;;;;6.80;6.50;;;;;;;;;;5062614;28;20031;-73
2022/09/14 12:51:28;;;;;;;6.70;6.40;;;;;;;;;;5061272;28;20123;-73
2022/09/14 12:54:31;;;;;;;6.40;6.10;;;;;;;;;;5063172;28;20033;-72
2022/09/14 12:57:02;;;;;;;6.60;6.30;;;;;;;;;;5060853;28;20051;-72
2022/09/14 12:59:28;;;;;;;6.95;6.65;;;;;;;;;;5061138;28;20046;-72
2022/09/14 13:02:03;;;;;;;7.50;7.10;;;;;;;;;;5059424;28;20025;-72
2022/09/14 13:04:33;;;;;;;7.00;6.70;;;;;;;;;;5059330;28;20672;-72
2022/09/14 13:07:02;;;;;;;7.15;6.85;;;;;;;;;;5059078;28;20040;-71
2022/09/14 13:09:30;;;;;;;7.05;6.75;;;;;;;;;;5060210;28;20494;-71
2022/09/14 13:12:09;;;;;;;6.90;6.60;;;;;;;;;;5056163;28;20276;-71
2022/09/14 13:14:39;;;;;;;;;;;;;;;;;;5060493;28;20036;-71
2022/09/14 13:17:12;;;;;;;6.85;6.55;;;;;;;;;;5055455;28;20416;-71
2022/09/14 13:19:38;;;;;;;6.75;6.45;;;;;;;;;;5056982;28;20455;-71
2022/09/14 13:22:20;;;;;;;6.90;6.60;;;;;;;;;;5064874;28;20035;-72
2022/09/14 13:24:47;;;;;;;6.18;5.88;;;;;;;;;;5062602;28;20037;-71
2022/09/14 13:27:22;;;;;;;6.88;6.57;;;;;;;;;;5061455;28;20641;-71
2022/09/14 13:29:55;;;;;;;6.63;6.32;;;;;;;;;;5059652;28;20036;-71
2022/09/14 13:32:20;;;;;;;6.60;6.30;;;;;;;;;;5060445;28;20044;-73
2022/09/14 13:34:46;;;;;;;6.95;6.65;;;;;;;;;;5059460;28;20036;-72
2022/09/14 13:37:13;;;;;;;6.93;6.63;;;;;;;;;;5062694;28;20139;-72
2022/09/14 13:39:40;;;;;;;7.05;6.75;;;;;;;;;;5042642;28;20162;-71
2022/09/14 13:42:08;;;;;;;6.78;6.47;;;;;;;;;;5060571;28;20036;-72
2022/09/14 13:44:42;;;;;;;6.90;6.60;;;;;;;;;;5061989;28;20033;-72
2022/09/14 13:47:12;;;;;;;6.90;6.60;;;;;;;;;;5043230;28;20116;-73
2022/09/14 13:49:40;;;;;;;6.88;6.57;;;;;;;;;;5060435;28;20116;-73
2022/09/14 13:52:21;;;;;;;6.97;6.68;;;;;;;;;;5061111;28;20036;-72
2022/09/14 13:55:06;;;;;;;6.97;6.68;;;;;;;;;;5059128;28;20051;-71
2022/09/14 13:57:32;;;;;;;6.90;6.60;;;;;;;;;;5059906;28;20031;-72
2022/09/14 14:00:20;;;;;;;6.95;6.65;;;;;;;;;;5057913;28;20419;-72
2022/09/14 14:02:58;;;;;;;6.70;6.40;;;;;;;;;;5042714;28;20052;-71
2022/09/14 14:05:29;;;;;;;7.35;6.95;;;;;;;;;;5059452;28;20148;-71
2022/09/14 14:07:56;;;;;;;6.82;6.53;;;;;;;;;;5059055;28;20040;-72
2022/09/14 14:10:27;;;;;;;6.90;6.60;;;;;;;;;;5058130;28;20032;-72
2022/09/14 14:12:53;;;;;;;6.78;6.47;;;;;;;;;;5059539;28;20033;-71
2022/09/14 14:15:18;;;;;;;6.70;6.40;;;;;;;;;;5060011;28;20131;-69
2022/09/14 14:17:44;;;;;;;6.90;6.60;;;;;;;;;;5066214;28;21295;-70
2022/09/14 14:20:25;;;;;;;7.00;6.70;;;;;;;;;;5063521;28;20120;-70
2022/09/14 14:23:07;;;;;;;6.82;6.53;;;;;;;;;;5063258;28;20639;-70
2022/09/14 14:25:53;;;;;;;7.00;6.70;;;;;;;;;;5062734;28;20565;-71
2022/09/14 14:28:19;;;;;;;6.93;6.63;;;;;;;;;;5065519;28;20102;-72
2022/09/14 14:30:44;;;;;;;7.38;6.97;;;;;;;;;;5066551;28;20733;-70
2022/09/14 14:33:12;;;;;;;7.05;6.75;;;;;;;;;;5057962;28;20036;-70
2022/09/14 14:35:38;;;;;;;6.85;6.55;;;;;;;;;;5063586;28;20068;-70
2022/09/14 14:38:04;;;;;;;7.07;6.78;;;;;;;;;;5064909;28;20052;-70
2022/09/14 14:40:32;;;;;;;6.00;5.70;;;;;;;;;;5064004;28;20622;-70
2022/09/14 14:43:00;;;;;;;6.03;5.72;;;;;;;;;;5058186;28;20708;-70
2022/09/14 14:45:26;;;;;;;6.75;6.45;;;;;;;;;;5046686;28;20060;-70
2022/09/14 14:47:53;;;;;;;6.00;5.70;;;;;;;;;;5061566;28;20060;-71
2022/09/14 14:50:21;;;;;;;5.57;5.38;;;;;;;;;;5062496;28;20056;-70
2022/09/14 14:52:48;;;;;;;6.10;5.80;;;;;;;;;;5046116;28;20072;-71
2022/09/14 14:55:13;;;;;;;5.40;5.20;;;;;;;;;;5063180;28;20070;-70
2022/09/14 14:57:39;;;;;;;7.00;6.70;;;;;;;;;;5065021;28;20744;-71
2022/09/14 15:00:11;;;;;;;6.95;6.65;;;;;;;;;;5051117;28;20045;-71
2022/09/14 15:02:37;;;;;;;7.20;6.85;;;;;;;;;;5064424;28;20066;-73
2022/09/14 15:05:03;;;;;;;6.85;6.55;;;;;;;;;;5062507;28;20735;-73
2022/09/14 15:07:29;;;;;;;6.68;6.38;;;;;;;;;;5064056;28;20036;-73
2022/09/14 15:09:56;;;;;;;7.07;6.78;;;;;;;;;;5064005;28;20634;-72